Time;durP1;ratioP1;P1;durP2;ratioP2;P2;SDS_P1;SDS_P2;PMS_P1;PMS_P2;Temp;Humidity;BMP_temperature;BMP_pressure;BME280_temperature;BME280_humidity;BME280_pressure;Samples;Min_cycle;Max_cycle;Signal;HPM_P1;HPM_P2
2021/09/08 00:00:18;;;;;;;;;;;;;;;;;;2111129;27;3093;-72
2021/09/08 00:01:19;;;;;;;;;;;;;;;;;;2109215;27;3868;-72
2021/09/08 00:02:19;;;;;;;;;;;;;;;;;;2111906;27;1699;-72
2021/09/08 00:03:20;;;;;;;;;;;;;;;;;;2109193;27;3868;-72
2021/09/08 00:04:20;;;;;;;;;;;;;;;;;;2111740;27;1108;-72
2021/09/08 00:05:21;;;;;;;;;;;;;;;;;;2110519;27;2058;-72
2021/09/08 00:06:21;;;;;;;;;;;;;;;;;;2110380;27;2806;-72
2021/09/08 00:07:22;;;;;;;;;;;;;;;;;;2111017;27;2288;-72
2021/09/08 00:08:22;;;;;;;;;;;;;;;;;;2112047;27;1384;-73
2021/09/08 00:09:24;;;;;;;;;;;;;;;;;;2109890;27;3543;-73
2021/09/08 00:10:24;;;;;;;;;;;;;;;;;;2112008;27;1088;-73
2021/09/08 00:11:25;;;;;;;;;;;;;;;;;;2110100;27;2589;-72
2021/09/08 00:12:25;;;;;;;;;;;;;;;;;;2111072;27;2326;-72
2021/09/08 00:13:26;;;;;;;;;;;;;;;;;;2110287;27;2412;-72
2021/09/08 00:14:27;;;;;;;;;;;;;;;;;;2110338;27;2769;-72
2021/09/08 00:15:28;;;;;;;;;;;;;;;;;;2110559;27;2998;-73
2021/09/08 00:16:28;;;;;;;;;;;;;;;;;;2111703;27;1080;-73
2021/09/08 00:17:29;;;;;;;;;;;;;;;;;;2110504;27;3396;-73
2021/09/08 00:18:29;;;;;;;;;;;;;;;;;;2109051;27;1076;-72
2021/09/08 00:19:30;;;;;;;;;;;;;;;;;;2106486;27;1713;-72
2021/09/08 00:20:31;;;;;;;;;;;;;;;;;;2107172;27;1783;-73
2021/09/08 00:21:31;;;;;;;;;;;;;;;;;;2106047;27;3559;-72
2021/09/08 00:22:32;;;;;;;;;;;;;;;;;;2107300;27;3436;-72
2021/09/08 00:23:32;;;;;;;;;;;;;;;;;;2106322;27;2957;-71
2021/09/08 00:24:33;;;;;;;;;;;;;;;;;;2107638;27;2567;-72
2021/09/08 00:25:34;;;;;;;;;;;;;;;;;;2106652;27;3074;-73
2021/09/08 00:26:35;;;;;;;;;;;;;;;;;;2105928;27;3092;-73
2021/09/08 00:27:35;;;;;;;;;;;;;;;;;;2106682;27;4016;-73
2021/09/08 00:28:36;;;;;;;;;;;;;;;;;;2107739;27;2657;-72
2021/09/08 00:29:36;;;;;;;;;;;;;;;;;;2105788;27;2156;-72
2021/09/08 00:30:37;;;;;;;;;;;;;;;;;;2109592;27;3577;-72
2021/09/08 00:31:37;;;;;;;;;;;;;;;;;;2104563;27;3122;-72
2021/09/08 00:32:38;;;;;;;;;;;;;;;;;;2105921;27;4029;-72
2021/09/08 00:33:41;;;;;;;;;;;;;;;;;;2107099;27;3380;-72
2021/09/08 00:34:43;;;;;;;;;;;;;;;;;;2108151;27;2133;-72
2021/09/08 00:35:43;;;;;;;;;;;;;;;;;;2106855;27;3856;-72
2021/09/08 00:36:44;;;;;;;;;;;;;;;;;;2108341;27;1017;-72
2021/09/08 00:37:44;;;;;;;;;;;;;;;;;;2109106;27;3184;-72
2021/09/08 00:38:45;;;;;;;;;;;;;;;;;;2109502;27;1487;-73
2021/09/08 00:39:45;;;;;;;;;;;;;;;;;;2107228;27;3998;-73
2021/09/08 00:40:46;;;;;;;;;;;;;;;;;;2107769;27;3951;-72
2021/09/08 00:41:47;;;;;;;;;;;;;;;;;;2107872;27;3492;-73
2021/09/08 00:42:48;;;;;;;;;;;;;;;;;;2108260;27;4280;-71
2021/09/08 00:43:48;;;;;;;;;;;;;;;;;;2108153;27;2531;-72
2021/09/08 00:44:49;;;;;;;;;;;;;;;;;;2108099;27;3661;-72
2021/09/08 00:45:49;;;;;;;;;;;;;;;;;;2108109;27;3641;-72
2021/09/08 00:46:50;;;;;;;;;;;;;;;;;;2108782;27;2333;-72
2021/09/08 00:47:50;;;;;;;;;;;;;;;;;;2109597;27;3919;-72
2021/09/08 00:48:51;;;;;;;;;;;;;;;;;;2108839;27;3764;-72
2021/09/08 00:49:51;;;;;;;;;;;;;;;;;;2109231;27;2774;-72
2021/09/08 00:50:52;;;;;;;;;;;;;;;;;;2109826;27;1068;-72
2021/09/08 00:51:53;;;;;;;;;;;;;;;;;;2109874;27;1160;-72
2021/09/08 00:52:54;;;;;;;;;;;;;;;;;;2110473;27;1089;-73
2021/09/08 00:53:54;;;;;;;;;;;;;;;;;;2108909;27;3676;-72
2021/09/08 00:54:55;;;;;;;;;;;;;;;;;;2108528;27;3409;-72
2021/09/08 00:55:55;;;;;;;;;;;;;;;;;;2109908;27;1288;-72
2021/09/08 00:56:56;;;;;;;;;;;;;;;;;;2109387;27;3589;-72
2021/09/08 00:57:56;;;;;;;;;;;;;;;;;;2111084;27;4102;-73
2021/09/08 00:58:57;;;;;;;;;;;;;;;;;;2110778;27;1085;-72
2021/09/08 00:59:57;;;;;;;;;;;;;;;;;;2110818;27;1036;-72
2021/09/08 01:00:59;;;;;;;;;;;;;;;;;;2109741;27;3882;-72
2021/09/08 01:02:00;;;;;;;;;;;;;;;;;;2110840;27;1168;-72
2021/09/08 01:03:01;;;;;;;;;;;;;;;;;;2110407;27;3088;-72
2021/09/08 01:04:01;;;;;;;;;;;;;;;;;;2106687;27;4108;-72
2021/09/08 01:05:04;;;;;;;;;;;;;;;;;;2109208;27;4410;-72
2021/09/08 01:06:04;;;;;;;;;;;;;;;;;;2111127;27;3201;-72
2021/09/08 01:07:05;;;;;;;;;;;;;;;;;;2112010;27;1610;-71
2021/09/08 01:08:09;;;;;;;;;;;;;;;;;;2110286;27;2154;-73
2021/09/08 01:09:11;;;;;;;;;;;;;;;;;;2110738;27;4014;-72
2021/09/08 01:10:12;;;;;;;;;;;;;;;;;;2109867;27;2228;-72
2021/09/08 01:11:13;;;;;;;;;;;;;;;;;;2109364;27;2146;-72
2021/09/08 01:12:14;;;;;;;;;;;;;;;;;;2111870;27;1087;-73
2021/09/08 01:13:14;;;;;;;;;;;;;;;;;;2109321;27;2083;-72
2021/09/08 01:14:16;;;;;;;;;;;;;;;;;;2110874;27;2019;-72
2021/09/08 01:15:16;;;;;;;;;;;;;;;;;;2111208;27;1829;-72
2021/09/08 01:16:17;;;;;;;;;;;;;;;;;;2111249;27;1137;-72
2021/09/08 01:17:17;;;;;;;;;;;;;;;;;;2111158;27;1192;-72
2021/09/08 01:18:18;;;;;;;;;;;;;;;;;;2111899;27;1025;-73
2021/09/08 01:19:19;;;;;;;;;;;;;;;;;;2110623;27;2727;-72
2021/09/08 01:20:20;;;;;;;;;;;;;;;;;;2111335;27;1209;-72
2021/09/08 01:21:20;;;;;;;;;;;;;;;;;;2111086;27;1437;-72
2021/09/08 01:22:21;;;;;;;;;;;;;;;;;;2110516;27;1736;-72
2021/09/08 01:23:21;;;;;;;;;;;;;;;;;;2110539;27;1661;-73
2021/09/08 01:24:23;;;;;;;;;;;;;;;;;;2110333;27;3228;-72
2021/09/08 01:25:23;;;;;;;;;;;;;;;;;;2110149;27;3825;-72
2021/09/08 01:26:24;;;;;;;;;;;;;;;;;;2111084;27;1206;-72
2021/09/08 01:27:24;;;;;;;;;;;;;;;;;;2110606;27;3713;-72
2021/09/08 01:28:25;;;;;;;;;;;;;;;;;;2112080;27;1025;-72
2021/09/08 01:29:25;;;;;;;;;;;;;;;;;;2108947;27;3701;-72
2021/09/08 01:30:26;;;;;;;;;;;;;;;;;;2111332;27;4036;-71
2021/09/08 01:31:27;;;;;;;;;;;;;;;;;;2110928;27;1180;-71
2021/09/08 01:32:28;;;;;;;;;;;;;;;;;;2110915;27;1362;-72
2021/09/08 01:33:28;;;;;;;;;;;;;;;;;;2111067;27;3763;-72
2021/09/08 01:34:29;;;;;;;;;;;;;;;;;;2110865;27;3534;-72
2021/09/08 01:35:29;;;;;;;;;;;;;;;;;;2111224;27;2080;-72
2021/09/08 01:36:30;;;;;;;;;;;;;;;;;;2110755;27;1026;-72
2021/09/08 01:37:30;;;;;;;;;;;;;;;;;;2112052;27;3140;-72
2021/09/08 01:38:31;;;;;;;;;;;;;;;;;;2111330;27;1130;-72
2021/09/08 01:39:31;;;;;;;;;;;;;;;;;;2107792;27;3802;-72
2021/09/08 01:40:36;;;;;;;;;;;;;;;;;;2106578;27;3426;-73
2021/09/08 01:41:38;;;;;;;;;;;;;;;;;;2106091;27;1093;-72
2021/09/08 01:42:39;;;;;;;;;;;;;;;;;;2106710;27;1056;-73
2021/09/08 01:43:40;;;;;;;;;;;;;;;;;;2105975;27;2610;-72
2021/09/08 01:44:41;;;;;;;;;;;;;;;;;;2106615;27;1145;-73
2021/09/08 01:45:41;;;;;;;;;;;;;;;;;;2106644;27;4015;-73
2021/09/08 01:46:42;;;;;;;;;;;;;;;;;;2105814;27;3121;-72
2021/09/08 01:47:43;;;;;;;;;;;;;;;;;;2105946;27;3582;-72
2021/09/08 01:48:43;;;;;;;;;;;;;;;;;;2104529;27;3999;-72
2021/09/08 01:49:45;;;;;;;;;;;;;;;;;;2104302;27;4037;-72
2021/09/08 01:50:45;;;;;;;;;;;;;;;;;;2106567;27;3862;-72
2021/09/08 01:51:46;;;;;;;;;;;;;;;;;;2105241;27;3958;-72
2021/09/08 01:52:46;;;;;;;;;;;;;;;;;;2107125;27;4219;-72
2021/09/08 01:53:47;;;;;;;;;;;;;;;;;;2106670;27;2828;-72
2021/09/08 01:54:47;;;;;;;;;;;;;;;;;;2107891;27;1998;-72
2021/09/08 01:55:49;;;;;;;;;;;;;;;;;;2105988;27;4244;-72
2021/09/08 01:56:49;;;;;;;;;;;;;;;;;;2108007;27;1835;-72
2021/09/08 01:57:50;;;;;;;;;;;;;;;;;;2107598;27;4493;-72
2021/09/08 01:58:50;;;;;;;;;;;;;;;;;;2108741;27;1110;-72
2021/09/08 01:59:51;;;;;;;;;;;;;;;;;;2107534;27;2603;-72
2021/09/08 02:00:51;;;;;;;;;;;;;;;;;;2106225;27;4077;-72
2021/09/08 02:01:53;;;;;;;;;;;;;;;;;;2107658;27;4053;-71
2021/09/08 02:02:54;;;;;;;;;;;;;;;;;;2108102;27;4084;-72
2021/09/08 02:03:55;;;;;;;;;;;;;;;;;;2106123;27;4435;-72
2021/09/08 02:04:55;;;;;;;;;;;;;;;;;;2106843;27;3978;-73
2021/09/08 02:05:56;;;;;;;;;;;;;;;;;;2108701;27;1126;-73
2021/09/08 02:06:56;;;;;;;;;;;;;;;;;;2108530;27;2200;-72
2021/09/08 02:07:57;;;;;;;;;;;;;;;;;;2109420;27;1009;-72
2021/09/08 02:08:57;;;;;;;;;;;;;;;;;;2108713;27;1348;-72
2021/09/08 02:09:58;;;;;;;;;;;;;;;;;;2108103;27;4140;-72
2021/09/08 02:10:58;;;;;;;;;;;;;;;;;;2107854;27;3790;-72
2021/09/08 02:12:00;;;;;;;;;;;;;;;;;;2108443;27;3958;-72
2021/09/08 02:13:00;;;;;;;;;;;;;;;;;;2109229;27;4018;-72
2021/09/08 02:14:01;;;;;;;;;;;;;;;;;;2108362;27;1229;-72
2021/09/08 02:15:01;;;;;;;;;;;;;;;;;;2108534;27;2696;-72
2021/09/08 02:16:02;;;;;;;;;;;;;;;;;;2109164;27;1087;-72
2021/09/08 02:17:03;;;;;;;;;;;;;;;;;;2108936;27;1122;-72
2021/09/08 02:18:03;;;;;;;;;;;;;;;;;;2109626;27;1029;-73
2021/09/08 02:19:04;;;;;;;;;;;;;;;;;;2110470;27;1061;-72
2021/09/08 02:20:04;;;;;;;;;;;;;;;;;;2109258;27;4063;-72
2021/09/08 02:21:05;;;;;;;;;;;;;;;;;;2109795;27;1169;-72
2021/09/08 02:22:06;;;;;;;;;;;;;;;;;;2109478;27;1207;-72
2021/09/08 02:23:07;;;;;;;;;;;;;;;;;;2109948;27;2973;-73
2021/09/08 02:24:08;;;;;;;;;;;;;;;;;;2109368;27;4187;-72
2021/09/08 02:25:08;;;;;;;;;;;;;;;;;;2105671;27;3846;-72
2021/09/08 02:26:09;;;;;;;;;;;;;;;;;;2108128;27;1229;-72
2021/09/08 02:27:09;;;;;;;;;;;;;;;;;;2109067;27;3987;-72
2021/09/08 02:28:10;;;;;;;;;;;;;;;;;;2109215;27;3948;-72
2021/09/08 02:29:10;;;;;;;;;;;;;;;;;;2109897;27;3216;-72
2021/09/08 02:30:11;;;;;;;;;;;;;;;;;;2108066;27;3698;-72
2021/09/08 02:31:11;;;;;;;;;;;;;;;;;;2110513;27;1084;-72
2021/09/08 02:32:13;;;;;;;;;;;;;;;;;;2111132;27;2905;-72
2021/09/08 02:33:13;;;;;;;;;;;;;;;;;;2109831;27;3575;-72
2021/09/08 02:34:16;;;;;;;;;;;;;;;;;;2110536;27;3828;-72
2021/09/08 02:35:16;;;;;;;;;;;;;;;;;;2109235;27;3306;-72
2021/09/08 02:36:20;;;;;;;;;;;;;;;;;;2106047;27;3674;-72
2021/09/08 02:37:20;;;;;;;;;;;;;;;;;;2105780;27;4475;-72
2021/09/08 02:38:21;;;;;;;;;;;;;;;;;;2110763;27;4346;-73
2021/09/08 02:39:21;;;;;;;;;;;;;;;;;;2105693;27;4189;-72
2021/09/08 02:40:22;;;;;;;;;;;;;;;;;;2101966;27;4141;-72
2021/09/08 02:41:23;;;;;;;;;;;;;;;;;;2109838;27;4248;-71
2021/09/08 02:42:25;;;;;;;;;;;;;;;;;;2110443;27;1073;-72
2021/09/08 02:43:25;;;;;;;;;;;;;;;;;;2110149;27;1149;-72
2021/09/08 02:44:26;;;;;;;;;;;;;;;;;;2110482;27;3420;-72
2021/09/08 02:45:26;;;;;;;;;;;;;;;;;;2109805;27;4211;-73
2021/09/08 02:46:27;;;;;;;;;;;;;;;;;;2109303;27;4002;-72
2021/09/08 02:47:27;;;;;;;;;;;;;;;;;;2110181;27;1178;-72
2021/09/08 02:48:28;;;;;;;;;;;;;;;;;;2110844;27;4009;-72
2021/09/08 02:49:28;;;;;;;;;;;;;;;;;;2109972;27;2967;-72
2021/09/08 02:50:29;;;;;;;;;;;;;;;;;;2110466;27;4246;-72
2021/09/08 02:51:29;;;;;;;;;;;;;;;;;;2109958;27;1181;-72
2021/09/08 02:52:30;;;;;;;;;;;;;;;;;;2106020;27;1978;-72
2021/09/08 02:53:33;;;;;;;;;;;;;;;;;;2104918;27;3115;-72
2021/09/08 02:54:33;;;;;;;;;;;;;;;;;;2106483;27;998;-72
2021/09/08 02:55:34;;;;;;;;;;;;;;;;;;2105080;27;3909;-72
2021/09/08 02:56:34;;;;;;;;;;;;;;;;;;2105880;27;3618;-72
2021/09/08 02:57:35;;;;;;;;;;;;;;;;;;2106225;27;1042;-72
2021/09/08 02:58:35;;;;;;;;;;;;;;;;;;2107165;27;1121;-72
2021/09/08 02:59:36;;;;;;;;;;;;;;;;;;2106344;27;1133;-72
2021/09/08 03:00:36;;;;;;;;;;;;;;;;;;2106023;27;3776;-72
2021/09/08 03:01:38;;;;;;;;;;;;;;;;;;2106022;27;3828;-73
2021/09/08 03:02:38;;;;;;;;;;;;;;;;;;2107060;27;2894;-72
2021/09/08 03:03:39;;;;;;;;;;;;;;;;;;2106396;27;1086;-72
2021/09/08 03:04:39;;;;;;;;;;;;;;;;;;2106844;27;2642;-72
2021/09/08 03:05:40;;;;;;;;;;;;;;;;;;2105047;27;4053;-72
2021/09/08 03:06:40;;;;;;;;;;;;;;;;;;2106429;27;3558;-73
2021/09/08 03:07:41;;;;;;;;;;;;;;;;;;2107426;27;1093;-73
2021/09/08 03:08:41;;;;;;;;;;;;;;;;;;2107617;27;1277;-72
2021/09/08 03:09:42;;;;;;;;;;;;;;;;;;2107305;27;3089;-72
2021/09/08 03:10:43;;;;;;;;;;;;;;;;;;2104425;27;4050;-72
2021/09/08 03:11:44;;;;;;;;;;;;;;;;;;2107263;27;1083;-72
2021/09/08 03:12:44;;;;;;;;;;;;;;;;;;2107921;27;1064;-73
2021/09/08 03:13:45;;;;;;;;;;;;;;;;;;2107092;27;1074;-72
2021/09/08 03:14:46;;;;;;;;;;;;;;;;;;2106852;27;4003;-72
2021/09/08 03:15:47;;;;;;;;;;;;;;;;;;2101831;27;3646;-72
2021/09/08 03:16:47;;;;;;;;;;;;;;;;;;2104255;27;2778;-72
2021/09/08 03:17:48;;;;;;;;;;;;;;;;;;2106461;27;3493;-72
2021/09/08 03:18:48;;;;;;;;;;;;;;;;;;2107523;27;1104;-72
2021/09/08 03:19:49;;;;;;;;;;;;;;;;;;2108186;27;1073;-72
2021/09/08 03:20:49;;;;;;;;;;;;;;;;;;2107956;27;1087;-72
2021/09/08 03:21:50;;;;;;;;;;;;;;;;;;2106486;27;3919;-72
2021/09/08 03:22:50;;;;;;;;;;;;;;;;;;2107882;27;3627;-72
2021/09/08 03:23:51;;;;;;;;;;;;;;;;;;2107733;27;1022;-72
2021/09/08 03:24:52;;;;;;;;;;;;;;;;;;2107548;27;2968;-72
2021/09/08 03:25:53;;;;;;;;;;;;;;;;;;2108299;27;1049;-72
2021/09/08 03:26:53;;;;;;;;;;;;;;;;;;2105407;27;3536;-72
2021/09/08 03:27:54;;;;;;;;;;;;;;;;;;2109167;27;1098;-72
2021/09/08 03:28:54;;;;;;;;;;;;;;;;;;2108049;27;3941;-72
2021/09/08 03:29:55;;;;;;;;;;;;;;;;;;2105572;27;3016;-72
2021/09/08 03:30:55;;;;;;;;;;;;;;;;;;2107541;27;3798;-72
2021/09/08 03:31:56;;;;;;;;;;;;;;;;;;2108585;27;3609;-72
2021/09/08 03:32:56;;;;;;;;;;;;;;;;;;2108717;27;1037;-72
2021/09/08 03:33:57;;;;;;;;;;;;;;;;;;2109139;27;1031;-72
2021/09/08 03:34:58;;;;;;;;;;;;;;;;;;2108287;27;4064;-72
2021/09/08 03:35:59;;;;;;;;;;;;;;;;;;2107710;27;1809;-72
2021/09/08 03:37:00;;;;;;;;;;;;;;;;;;2105423;27;4104;-72
2021/09/08 03:38:01;;;;;;;;;;;;;;;;;;2109310;27;3654;-72
2021/09/08 03:39:01;;;;;;;;;;;;;;;;;;2109763;27;1582;-71
2021/09/08 03:40:02;;;;;;;;;;;;;;;;;;2108293;27;3665;-72
2021/09/08 03:41:02;;;;;;;;;;;;;;;;;;2106160;27;3999;-72
2021/09/08 03:42:40;;;;;;;;;;;;;;;;;;2119791;27;4103;-72
2021/09/08 03:43:41;;;;;;;;;;;;;;;;;;2114055;27;4134;-71
2021/09/08 03:44:41;;;;;;;;;;;;;;;;;;2117662;27;3956;-72
2021/09/08 03:45:43;;;;;;;;;;;;;;;;;;2116218;27;4258;-72
2021/09/08 03:46:43;;;;;;;;;;;;;;;;;;2117151;27;3786;-71
2021/09/08 03:47:44;;;;;;;;;;;;;;;;;;2117905;27;1019;-72
2021/09/08 03:48:44;;;;;;;;;;;;;;;;;;2116787;27;1454;-72
2021/09/08 03:49:46;;;;;;;;;;;;;;;;;;2115455;27;3741;-72
2021/09/08 03:50:46;;;;;;;;;;;;;;;;;;2116821;27;4074;-72
2021/09/08 03:51:47;;;;;;;;;;;;;;;;;;2115949;27;3996;-72
2021/09/08 03:52:47;;;;;;;;;;;;;;;;;;2117252;27;4110;-72
2021/09/08 03:53:49;;;;;;;;;;;;;;;;;;2114092;27;3719;-72
2021/09/08 03:54:49;;;;;;;;;;;;;;;;;;2114968;27;4459;-73
2021/09/08 03:55:50;;;;;;;;;;;;;;;;;;2115443;27;3028;-73
2021/09/08 03:56:50;;;;;;;;;;;;;;;;;;2114987;27;3947;-72
2021/09/08 03:57:51;;;;;;;;;;;;;;;;;;2116865;27;2554;-72
2021/09/08 03:58:51;;;;;;;;;;;;;;;;;;2116671;27;4101;-71
2021/09/08 03:59:52;;;;;;;;;;;;;;;;;;2116508;27;3868;-72
2021/09/08 04:00:53;;;;;;;;;;;;;;;;;;2116334;27;3749;-72
2021/09/08 04:01:53;;;;;;;;;;;;;;;;;;2115863;27;3712;-72
2021/09/08 04:02:54;;;;;;;;;;;;;;;;;;2115852;27;3516;-72
2021/09/08 04:03:55;;;;;;;;;;;;;;;;;;2116879;27;1031;-72
2021/09/08 04:04:58;;;;;;;;;;;;;;;;;;2116280;27;3792;-71
2021/09/08 04:05:58;;;;;;;;;;;;;;;;;;2117546;27;1114;-72
2021/09/08 04:06:59;;;;;;;;;;;;;;;;;;2115502;27;3586;-72
2021/09/08 04:08:00;;;;;;;;;;;;;;;;;;2113502;27;2642;-72
2021/09/08 04:09:01;;;;;;;;;;;;;;;;;;2114756;27;3755;-72
2021/09/08 04:10:02;;;;;;;;;;;;;;;;;;2116140;27;3531;-72
2021/09/08 04:11:02;;;;;;;;;;;;;;;;;;2112786;27;3868;-72
2021/09/08 04:12:03;;;;;;;;;;;;;;;;;;2113727;27;3284;-72
2021/09/08 04:13:03;;;;;;;;;;;;;;;;;;2113240;27;1016;-71
2021/09/08 04:14:04;;;;;;;;;;;;;;;;;;2113120;27;1942;-72
2021/09/08 04:15:05;;;;;;;;;;;;;;;;;;2112890;27;3019;-72
2021/09/08 04:16:06;;;;;;;;;;;;;;;;;;2112765;27;1181;-72
2021/09/08 04:17:06;;;;;;;;;;;;;;;;;;2113992;27;1126;-72
2021/09/08 04:18:07;;;;;;;;;;;;;;;;;;2113605;27;997;-72
2021/09/08 04:19:07;;;;;;;;;;;;;;;;;;2113921;27;1036;-71
2021/09/08 04:20:09;;;;;;;;;;;;;;;;;;2114882;27;1070;-72
2021/09/08 04:21:09;;;;;;;;;;;;;;;;;;2112531;27;3829;-72
2021/09/08 04:22:10;;;;;;;;;;;;;;;;;;2113918;27;1905;-72
2021/09/08 04:23:10;;;;;;;;;;;;;;;;;;2112566;27;1279;-72
2021/09/08 04:24:11;;;;;;;;;;;;;;;;;;2113206;27;3569;-72
2021/09/08 04:25:11;;;;;;;;;;;;;;;;;;2111489;27;3668;-72
2021/09/08 04:26:15;;;;;;;;;;;;;;;;;;2112114;27;3500;-72
2021/09/08 04:27:15;;;;;;;;;;;;;;;;;;2112016;27;3964;-72
2021/09/08 04:28:16;;;;;;;;;;;;;;;;;;2114036;27;1036;-72
2021/09/08 04:29:16;;;;;;;;;;;;;;;;;;2112969;27;3507;-72
2021/09/08 04:30:18;;;;;;;;;;;;;;;;;;2112683;27;1512;-72
2021/09/08 04:31:18;;;;;;;;;;;;;;;;;;2113058;27;2125;-72
2021/09/08 04:32:19;;;;;;;;;;;;;;;;;;2113498;27;2030;-72
2021/09/08 04:33:22;;;;;;;;;;;;;;;;;;2112250;27;1356;-73
2021/09/08 04:34:23;;;;;;;;;;;;;;;;;;2114102;27;3120;-72
2021/09/08 04:35:23;;;;;;;;;;;;;;;;;;2113112;27;4300;-72
2021/09/08 04:36:24;;;;;;;;;;;;;;;;;;2111813;27;3931;-72
2021/09/08 04:37:24;;;;;;;;;;;;;;;;;;2111752;27;4007;-72
2021/09/08 04:38:25;;;;;;;;;;;;;;;;;;2114887;27;2701;-72
2021/09/08 04:39:25;;;;;;;;;;;;;;;;;;2114364;27;4188;-72
2021/09/08 04:40:26;;;;;;;;;;;;;;;;;;2111677;27;4153;-72
2021/09/08 04:41:27;;;;;;;;;;;;;;;;;;2113679;27;4159;-72
2021/09/08 04:42:28;;;;;;;;;;;;;;;;;;2111281;27;4241;-72
2021/09/08 04:43:28;;;;;;;;;;;;;;;;;;2105001;27;4886;-72
2021/09/08 04:44:29;;;;;;;;;;;;;;;;;;2113091;27;4146;-72
2021/09/08 04:45:29;;;;;;;;;;;;;;;;;;2113268;27;3724;-72
2021/09/08 04:46:30;;;;;;;;;;;;;;;;;;2112868;27;3627;-72
2021/09/08 04:47:30;;;;;;;;;;;;;;;;;;2116562;27;1121;-72
2021/09/08 04:48:31;;;;;;;;;;;;;;;;;;2114228;27;3670;-71
2021/09/08 04:49:32;;;;;;;;;;;;;;;;;;2115025;27;4360;-72
2021/09/08 04:50:33;;;;;;;;;;;;;;;;;;2114772;27;4241;-72
2021/09/08 04:51:33;;;;;;;;;;;;;;;;;;2114497;27;3852;-72
2021/09/08 04:52:35;;;;;;;;;;;;;;;;;;2116455;27;1333;-72
2021/09/08 04:53:35;;;;;;;;;;;;;;;;;;2109735;27;3220;-72
2021/09/08 04:54:37;;;;;;;;;;;;;;;;;;2109726;27;3750;-71
2021/09/08 04:55:37;;;;;;;;;;;;;;;;;;2109901;27;3733;-72
2021/09/08 04:56:38;;;;;;;;;;;;;;;;;;2108926;27;3655;-72
2021/09/08 04:57:39;;;;;;;;;;;;;;;;;;2111495;27;4389;-72
2021/09/08 04:58:40;;;;;;;;;;;;;;;;;;2109709;27;4063;-72
2021/09/08 04:59:41;;;;;;;;;;;;;;;;;;2110027;27;3660;-72
2021/09/08 05:00:42;;;;;;;;;;;;;;;;;;2111391;27;1101;-72
2021/09/08 05:01:42;;;;;;;;;;;;;;;;;;2107723;27;3520;-72
2021/09/08 05:02:43;;;;;;;;;;;;;;;;;;2109768;27;2388;-72
2021/09/08 05:03:44;;;;;;;;;;;;;;;;;;2107998;27;3947;-72
2021/09/08 05:04:44;;;;;;;;;;;;;;;;;;2109645;27;2440;-73
2021/09/08 05:05:45;;;;;;;;;;;;;;;;;;2104960;27;4033;-72
2021/09/08 05:06:45;;;;;;;;;;;;;;;;;;2110218;27;3648;-72
2021/09/08 05:07:46;;;;;;;;;;;;;;;;;;2110097;27;3939;-71
2021/09/08 05:08:49;;;;;;;;;;;;;;;;;;2110566;27;3964;-72
2021/09/08 05:09:50;;;;;;;;;;;;;;;;;;2110699;27;3520;-72
2021/09/08 05:10:50;;;;;;;;;;;;;;;;;;2108555;27;3992;-72
2021/09/08 05:11:51;;;;;;;;;;;;;;;;;;2110789;27;3773;-71
2021/09/08 05:12:51;;;;;;;;;;;;;;;;;;2109829;27;3162;-72
2021/09/08 05:13:52;;;;;;;;;;;;;;;;;;2109763;27;4261;-71
2021/09/08 05:14:52;;;;;;;;;;;;;;;;;;2110512;27;2885;-72
2021/09/08 05:15:53;;;;;;;;;;;;;;;;;;2111306;27;4136;-72
2021/09/08 05:16:53;;;;;;;;;;;;;;;;;;2111269;27;2446;-72
2021/09/08 05:17:55;;;;;;;;;;;;;;;;;;2111104;27;3754;-71
2021/09/08 05:18:55;;;;;;;;;;;;;;;;;;2111805;27;1009;-72
2021/09/08 05:19:56;;;;;;;;;;;;;;;;;;2108990;27;3673;-72
2021/09/08 05:20:56;;;;;;;;;;;;;;;;;;2111385;27;1125;-72
2021/09/08 05:21:59;;;;;;;;;;;;;;;;;;2105976;27;3442;-72
2021/09/08 05:22:59;;;;;;;;;;;;;;;;;;2103786;27;4193;-72
2021/09/08 05:24:01;;;;;;;;;;;;;;;;;;2105982;27;1117;-72
2021/09/08 05:25:01;;;;;;;;;;;;;;;;;;2106301;27;4110;-72
2021/09/08 05:26:02;;;;;;;;;;;;;;;;;;2106042;27;1321;-72
2021/09/08 05:27:02;;;;;;;;;;;;;;;;;;2105864;27;3687;-72
2021/09/08 05:28:06;;;;;;;;;;;;;;;;;;2105313;27;4067;-72
2021/09/08 05:29:06;;;;;;;;;;;;;;;;;;2105945;27;3592;-72
2021/09/08 05:30:07;;;;;;;;;;;;;;;;;;2106087;27;2079;-71
2021/09/08 05:31:07;;;;;;;;;;;;;;;;;;2105334;27;3977;-72
2021/09/08 05:32:08;;;;;;;;;;;;;;;;;;2107182;27;4455;-72
2021/09/08 05:33:08;;;;;;;;;;;;;;;;;;2106378;27;4026;-72
2021/09/08 05:34:09;;;;;;;;;;;;;;;;;;2105366;27;3940;-72
2021/09/08 05:35:12;;;;;;;;;;;;;;;;;;2103658;27;3862;-72
2021/09/08 05:36:15;;;;;;;;;;;;;;;;;;2102960;27;3306;-72
2021/09/08 05:37:15;;;;;;;;;;;;;;;;;;2106326;27;2310;-72
2021/09/08 05:38:17;;;;;;;;;;;;;;;;;;2106480;27;1384;-72
2021/09/08 05:39:18;;;;;;;;;;;;;;;;;;2107673;27;2320;-72
2021/09/08 05:40:19;;;;;;;;;;;;;;;;;;2107389;27;3748;-72
2021/09/08 05:41:19;;;;;;;;;;;;;;;;;;2107120;27;2718;-71
2021/09/08 05:42:20;;;;;;;;;;;;;;;;;;2106842;27;3850;-72
2021/09/08 05:43:20;;;;;;;;;;;;;;;;;;2107542;27;3898;-71
2021/09/08 05:44:21;;;;;;;;;;;;;;;;;;2107086;27;3813;-72
2021/09/08 05:45:23;;;;;;;;;;;;;;;;;;2107124;27;3320;-72
2021/09/08 05:46:24;;;;;;;;;;;;;;;;;;2106997;27;4058;-72
2021/09/08 05:47:25;;;;;;;;;;;;;;;;;;2108738;27;2788;-72
2021/09/08 05:48:26;;;;;;;;;;;;;;;;;;2108016;27;3296;-72
2021/09/08 05:49:27;;;;;;;;;;;;;;;;;;2106703;27;3575;-72
2021/09/08 05:50:27;;;;;;;;;;;;;;;;;;2107434;27;3761;-72
2021/09/08 05:51:28;;;;;;;;;;;;;;;;;;2107878;27;3811;-72
2021/09/08 05:52:28;;;;;;;;;;;;;;;;;;2104621;27;2746;-72
2021/09/08 05:53:30;;;;;;;;;;;;;;;;;;2107814;27;2084;-72
2021/09/08 05:54:30;;;;;;;;;;;;;;;;;;2106875;27;4477;-72
2021/09/08 05:55:31;;;;;;;;;;;;;;;;;;2102496;27;2761;-72
2021/09/08 05:56:31;;;;;;;;;;;;;;;;;;2107873;27;3379;-72
2021/09/08 05:57:32;;;;;;;;;;;;;;;;;;2108995;27;4036;-71
2021/09/08 05:58:32;;;;;;;;;;;;;;;;;;2111031;27;2386;-72
2021/09/08 05:59:33;;;;;;;;;;;;;;;;;;2107430;27;3595;-72
2021/09/08 06:00:33;;;;;;;;;;;;;;;;;;2104905;27;4735;-72
2021/09/08 06:01:34;;;;;;;;;;;;;;;;;;2109211;27;2025;-71
2021/09/08 06:02:34;;;;;;;;;;;;;;;;;;2108255;27;2397;-72
2021/09/08 06:03:36;;;;;;;;;;;;;;;;;;2106778;27;3209;-72
2021/09/08 06:04:36;;;;;;;;;;;;;;;;;;2108321;27;1943;-72
2021/09/08 06:05:37;;;;;;;;;;;;;;;;;;2107165;27;3285;-72
2021/09/08 06:06:37;;;;;;;;;;;;;;;;;;2108048;27;2328;-72
2021/09/08 06:07:38;;;;;;;;;;;;;;;;;;2111311;27;1198;-72
2021/09/08 06:08:39;;;;;;;;;;;;;;;;;;2108418;27;3424;-72
2021/09/08 06:09:40;;;;;;;;;;;;;;;;;;2107583;27;3018;-72
2021/09/08 06:10:40;;;;;;;;;;;;;;;;;;2108765;27;1673;-72
2021/09/08 06:11:41;;;;;;;;;;;;;;;;;;2109732;27;1867;-72
2021/09/08 06:12:41;;;;;;;;;;;;;;;;;;2108210;27;4046;-72
2021/09/08 06:13:43;;;;;;;;;;;;;;;;;;2104452;27;4068;-72
2021/09/08 06:14:43;;;;;;;;;;;;;;;;;;2108135;27;3943;-72
2021/09/08 06:15:44;;;;;;;;;;;;;;;;;;2109804;27;4253;-72
2021/09/08 06:16:44;;;;;;;;;;;;;;;;;;2108548;27;3831;-72
2021/09/08 06:17:45;;;;;;;;;;;;;;;;;;2110731;27;1499;-71
2021/09/08 06:18:45;;;;;;;;;;;;;;;;;;2108641;27;3984;-72
2021/09/08 06:19:52;;;;;;;;;;;;;;;;;;2109007;27;4358;-72
2021/09/08 06:20:53;;;;;;;;;;;;;;;;;;2109168;27;3858;-72
2021/09/08 06:21:54;;;;;;;;;;;;;;;;;;2108302;27;4165;-71
2021/09/08 06:22:55;;;;;;;;;;;;;;;;;;2107804;27;3648;-71
2021/09/08 06:23:55;;;;;;;;;;;;;;;;;;2104631;27;3897;-72
2021/09/08 06:24:56;;;;;;;;;;;;;;;;;;2106388;27;4426;-72
2021/09/08 06:25:56;;;;;;;;;;;;;;;;;;2107635;27;2571;-72
2021/09/08 06:26:59;;;;;;;;;;;;;;;;;;2109562;27;4093;-71
2021/09/08 06:28:00;;;;;;;;;;;;;;;;;;2109607;27;3703;-72
2021/09/08 06:29:01;;;;;;;;;;;;;;;;;;2107204;27;3721;-71
2021/09/08 06:30:01;;;;;;;;;;;;;;;;;;2106914;27;4555;-72
2021/09/08 06:31:02;;;;;;;;;;;;;;;;;;2108117;27;2327;-72
2021/09/08 06:32:02;;;;;;;;;;;;;;;;;;2105487;27;2284;-71
2021/09/08 06:33:04;;;;;;;;;;;;;;;;;;2108345;27;3578;-73
2021/09/08 06:34:04;;;;;;;;;;;;;;;;;;2109508;27;3974;-72
2021/09/08 06:35:05;;;;;;;;;;;;;;;;;;2109142;27;4066;-72
2021/09/08 06:36:05;;;;;;;;;;;;;;;;;;2109985;27;3616;-73
2021/09/08 06:37:06;;;;;;;;;;;;;;;;;;2105871;27;3832;-72
2021/09/08 06:38:06;;;;;;;;;;;;;;;;;;2106154;27;1353;-72
2021/09/08 06:39:07;;;;;;;;;;;;;;;;;;2105973;27;3807;-72
2021/09/08 06:40:08;;;;;;;;;;;;;;;;;;2105449;27;3678;-72
2021/09/08 06:41:08;;;;;;;;;;;;;;;;;;2104956;27;3501;-72
2021/09/08 06:42:09;;;;;;;;;;;;;;;;;;2105523;27;4049;-73
2021/09/08 06:43:10;;;;;;;;;;;;;;;;;;2102889;27;3913;-72
2021/09/08 06:44:11;;;;;;;;;;;;;;;;;;2104016;27;4632;-72
2021/09/08 06:45:12;;;;;;;;;;;;;;;;;;2102908;27;3965;-72
2021/09/08 06:46:12;;;;;;;;;;;;;;;;;;2105112;27;4039;-72
2021/09/08 06:47:13;;;;;;;;;;;;;;;;;;2104841;27;3744;-71
2021/09/08 06:48:14;;;;;;;;;;;;;;;;;;2105952;27;3533;-72
2021/09/08 06:49:17;;;;;;;;;;;;;;;;;;2104522;27;3821;-72
2021/09/08 06:50:18;;;;;;;;;;;;;;;;;;2107328;27;1120;-72
2021/09/08 06:51:18;;;;;;;;;;;;;;;;;;2106584;27;1081;-72
2021/09/08 06:52:20;;;;;;;;;;;;;;;;;;2106395;27;3791;-72
2021/09/08 06:53:21;;;;;;;;;;;;;;;;;;2106482;27;1102;-72
2021/09/08 06:54:21;;;;;;;;;;;;;;;;;;2107429;27;3117;-73
2021/09/08 06:55:22;;;;;;;;;;;;;;;;;;2106107;27;3552;-72
2021/09/08 06:56:22;;;;;;;;;;;;;;;;;;2105652;27;4828;-72
2021/09/08 06:57:23;;;;;;;;;;;;;;;;;;2106521;27;4008;-72
2021/09/08 06:58:23;;;;;;;;;;;;;;;;;;2105817;27;4560;-72
2021/09/08 06:59:24;;;;;;;;;;;;;;;;;;2105375;27;3974;-72
2021/09/08 07:00:24;;;;;;;;;;;;;;;;;;2105778;27;3908;-72
2021/09/08 07:01:25;;;;;;;;;;;;;;;;;;2106000;27;3841;-72
2021/09/08 07:02:26;;;;;;;;;;;;;;;;;;2106054;27;3959;-72